Time;durP1;ratioP1;P1;durP2;ratioP2;P2;SDS_P1;SDS_P2;PMS_P1;PMS_P2;Temp;Humidity;BMP_temperature;BMP_pressure;BME280_temperature;BME280_humidity;BME280_pressure;Samples;Min_cycle;Max_cycle;Signal;HPM_P1;HPM_P2
2022/12/20 00:00:04;;;;;;;36.13;20.50;;;3.00;99.90;;;;;;5071809;28;20222;-77
2022/12/20 00:02:29;;;;;;;37.92;19.88;;;2.90;99.90;;;;;;5071514;28;20530;-78
2022/12/20 00:04:55;;;;;;;39.67;19.87;;;3.00;99.90;;;;;;5071146;28;20280;-77
2022/12/20 00:07:20;;;;;;;56.00;25.00;;;3.00;99.90;;;;;;5053476;28;20229;-78
2022/12/20 00:09:46;;;;;;;44.70;20.13;;;2.90;99.90;;;;;;5071247;28;20188;-77
2022/12/20 00:12:12;;;;;;;27.50;15.67;;;2.90;99.90;;;;;;5053334;28;20205;-78
2022/12/20 00:14:37;;;;;;;32.73;16.70;;;2.80;99.90;;;;;;5037126;28;20222;-78
2022/12/20 00:17:03;;;;;;;29.00;15.50;;;2.80;99.90;;;;;;5053347;28;20307;-78
2022/12/20 00:19:28;;;;;;;27.07;15.40;;;2.90;99.90;;;;;;5052922;28;20185;-78
2022/12/20 00:21:54;;;;;;;25.77;14.83;;;2.80;99.90;;;;;;5070873;28;20213;-76
2022/12/20 00:24:19;;;;;;;29.93;16.50;;;2.90;99.90;;;;;;5070975;28;20215;-77
2022/12/20 00:26:45;;;;;;;37.33;19.07;;;2.80;99.90;;;;;;5070544;28;20755;-76
2022/12/20 00:29:10;;;;;;;37.90;19.80;;;2.80;99.90;;;;;;5053024;28;20189;-77
2022/12/20 00:31:36;;;;;;;33.33;17.40;;;2.80;99.90;;;;;;5071496;28;20551;-77
2022/12/20 00:34:02;;;;;;;27.70;17.03;;;2.80;99.90;;;;;;5053380;28;20300;-77
2022/12/20 00:36:30;;;;;;;27.43;18.33;;;2.70;99.90;;;;;;5070261;28;20214;-77
2022/12/20 00:38:57;;;;;;;35.75;18.77;;;2.80;99.90;;;;;;5069992;28;20183;-77
2022/12/20 00:41:24;;;;;;;28.00;17.35;;;2.80;99.90;;;;;;5035471;28;20190;-77
2022/12/20 00:43:51;;;;;;;25.95;15.38;;;2.70;99.90;;;;;;5035249;28;20371;-77
2022/12/20 00:46:18;;;;;;;29.38;16.52;;;2.80;99.90;;;;;;5051896;28;20203;-77
2022/12/20 00:48:44;;;;;;;27.42;16.67;;;2.80;99.90;;;;;;5069891;28;20189;-77
2022/12/20 00:51:13;;;;;;;25.63;15.97;;;2.80;99.90;;;;;;5069826;28;20194;-77
2022/12/20 00:53:39;;;;;;;29.63;16.25;;;2.80;99.90;;;;;;5069978;28;20254;-76
2022/12/20 00:56:06;;;;;;;33.90;17.48;;;2.80;99.90;;;;;;5069871;28;20201;-75
2022/12/20 00:58:34;;;;;;;19.95;12.35;;;2.80;99.90;;;;;;5069601;28;20189;-74
2022/12/20 01:00:59;;;;;;;26.25;14.43;;;2.80;99.90;;;;;;5069688;28;20185;-74
2022/12/20 01:03:26;;;;;;;23.70;12.23;;;2.80;99.90;;;;;;5069506;28;20731;-74
2022/12/20 01:05:57;;;;;;;20.02;12.77;;;2.80;99.90;;;;;;5069530;28;20931;-76
2022/12/20 01:08:23;;;;;;;25.17;15.35;;;2.90;99.90;;;;;;5051634;28;20632;-77
2022/12/20 01:11:12;;;;;;;29.58;18.45;;;3.00;99.90;;;;;;5069432;28;20684;-76
2022/12/20 01:13:40;;;;;;;31.60;17.20;;;2.80;99.90;;;;;;5051244;28;20212;-77
2022/12/20 01:16:18;;;;;;;24.63;14.82;;;2.80;99.90;;;;;;5033989;28;20272;-75
2022/12/20 01:18:44;;;;;;;27.30;16.65;;;2.80;99.90;;;;;;5051216;28;20284;-75
2022/12/20 01:21:12;;;;;;;30.55;15.38;;;2.80;99.90;;;;;;5069267;28;20664;-75
2022/12/20 01:23:39;;;;;;;27.17;15.27;;;2.90;99.90;;;;;;5051395;28;20204;-78
2022/12/20 01:26:10;;;;;;;23.02;13.98;;;2.90;99.90;;;;;;5068937;28;20434;-77
2022/12/20 01:28:37;;;;;;;26.17;15.15;;;2.90;99.90;;;;;;5069060;28;20186;-77
2022/12/20 01:31:06;;;;;;;27.33;14.82;;;2.90;99.90;;;;;;5068893;28;20336;-77
2022/12/20 01:33:32;;;;;;;23.93;15.20;;;3.00;99.90;;;;;;5068693;28;20202;-76
2022/12/20 01:36:03;;;;;;;27.97;15.80;;;3.00;99.90;;;;;;5068831;28;20530;-76
2022/12/20 01:38:29;;;;;;;26.45;15.55;;;2.90;99.90;;;;;;5068980;28;20424;-76
2022/12/20 01:40:58;;;;;;;22.97;14.23;;;3.00;99.90;;;;;;5068907;28;20677;-76
2022/12/20 01:43:43;;;;;;;25.70;15.40;;;3.00;99.90;;;;;;5068882;28;20197;-77
2022/12/20 01:46:09;;;;;;;24.00;15.38;;;3.00;99.90;;;;;;5069034;28;20416;-77
2022/12/20 01:48:35;;;;;;;29.63;15.80;;;3.10;99.90;;;;;;5068903;28;20196;-77
2022/12/20 01:51:01;;;;;;;28.10;15.47;;;3.10;99.90;;;;;;5068836;28;20666;-77
2022/12/20 01:53:26;;;;;;;27.33;15.50;;;3.10;99.90;;;;;;5069172;28;20799;-76
2022/12/20 01:55:53;;;;;;;28.27;15.97;;;3.10;99.90;;;;;;5050822;28;20219;-76
2022/12/20 01:58:21;;;;;;;24.88;15.52;;;3.20;99.90;;;;;;5068707;28;20201;-75
2022/12/20 02:00:47;;;;;;;22.27;13.63;;;3.20;99.90;;;;;;5068587;28;20193;-76
2022/12/20 02:03:15;;;;;;;24.02;15.65;;;3.30;99.90;;;;;;5051046;28;20260;-76
2022/12/20 02:05:46;;;;;;;27.35;15.50;;;3.30;99.90;;;;;;5052040;28;20197;-76
2022/12/20 02:08:15;;;;;;;22.05;13.57;;;3.30;99.90;;;;;;5051570;28;20195;-76
2022/12/20 02:11:18;;;;;;;22.30;13.20;;;3.30;99.90;;;;;;5070499;28;20289;-77
2022/12/20 02:14:10;;;;;;;8.33;4.93;;;3.30;99.90;;;;;;5068399;28;20939;-76
2022/12/20 02:16:48;;;;;;;6.90;5.03;;;3.80;99.90;;;;;;5050730;28;20431;-76
2022/12/20 02:19:53;;;;;;;2.57;2.37;;;4.60;99.90;;;;;;5068629;28;20422;-76
2022/12/20 02:22:41;;;;;;;2.40;2.20;;;5.30;99.90;;;;;;5068562;28;20437;-77
2022/12/20 02:25:45;;;;;;;2.73;2.13;;;5.60;99.90;;;;;;5050377;28;20429;-76
2022/12/20 02:28:32;;;;;;;2.30;1.50;;;5.80;99.90;;;;;;5070859;28;20437;-76
2022/12/20 02:31:00;;;;;;;3.53;2.40;;;6.20;99.90;;;;;;5072153;28;20467;-76
2022/12/20 02:33:27;;;;;;;1.90;1.80;;;6.50;99.90;;;;;;5072121;28;20532;-75
2022/12/20 02:35:53;;;;;;;2.53;2.33;;;6.80;99.90;;;;;;5054334;28;20461;-76
2022/12/20 02:38:26;;;;;;;3.87;2.60;;;6.70;99.90;;;;;;5072407;28;20421;-75
2022/12/20 02:41:00;;;;;;;8.60;2.33;;;6.70;99.90;;;;;;5054189;28;20417;-74
2022/12/20 02:46:18;;;;;;;3.90;2.70;;;6.90;99.90;;;;;;5012346;28;20433;-74
2022/12/20 02:48:47;;;;;;;3.30;2.33;;;6.90;99.90;;;;;;5054789;28;20429;-73
2022/12/20 02:51:14;;;;;;;8.20;2.57;;;6.90;99.90;;;;;;5072199;28;20975;-76
2022/12/20 02:53:41;;;;;;;3.83;2.63;;;7.10;99.90;;;;;;5071906;28;21005;-76
2022/12/20 02:56:27;;;;;;;3.93;2.63;;;7.10;99.90;;;;;;5037271;28;20489;-75
2022/12/20 02:59:02;;;;;;;3.00;2.20;;;7.20;99.90;;;;;;5072002;28;20397;-78
2022/12/20 03:01:32;;;;;;;3.60;2.70;;;7.20;99.90;;;;;;5071912;28;20494;-76
2022/12/20 03:03:59;;;;;;;3.43;2.20;;;7.40;99.90;;;;;;5071974;28;20483;-76
2022/12/20 03:06:25;;;;;;;2.60;1.63;;;7.40;99.90;;;;;;5071739;28;20473;-76
2022/12/20 03:08:50;;;;;;;4.67;2.20;;;7.50;99.90;;;;;;5053545;28;20425;-76
2022/12/20 03:11:16;;;;;;;11.17;7.50;;;7.50;99.90;;;;;;5071861;28;20199;-76
2022/12/20 03:13:42;;;;;;;21.73;13.27;;;7.40;99.90;;;;;;5053759;28;20695;-78
2022/12/20 03:16:09;;;;;;;22.60;14.27;;;6.90;99.90;;;;;;5071632;28;20827;-78
2022/12/20 03:18:35;;;;;;;21.07;13.13;;;6.20;99.90;;;;;;5054388;28;20179;-78
2022/12/20 03:21:00;;;;;;;27.50;15.90;;;5.60;99.90;;;;;;5071598;28;20487;-78
2022/12/20 03:23:26;;;;;;;25.93;16.90;;;5.20;99.90;;;;;;5071561;28;20207;-77
2022/12/20 03:25:52;;;;;;;19.10;12.90;;;4.90;99.90;;;;;;5071374;28;20209;-76
2022/12/20 03:28:17;;;;;;;16.50;11.27;;;4.70;99.90;;;;;;5071798;28;20175;-76
2022/12/20 03:30:44;;;;;;;15.00;10.03;;;4.70;99.90;;;;;;5071431;28;20193;-77
2022/12/20 03:33:10;;;;;;;2.20;1.93;;;4.80;99.90;;;;;;5071377;28;20304;-76
2022/12/20 03:35:36;;;;;;;4.20;3.27;;;5.50;99.90;;;;;;5071192;28;20497;-77
2022/12/20 03:38:01;;;;;;;3.23;1.70;;;6.00;99.90;;;;;;5053261;28;20186;-77
2022/12/20 03:40:27;;;;;;;5.60;1.77;;;6.90;99.90;;;;;;5052651;28;20179;-75
2022/12/20 03:42:52;;;;;;;2.47;1.87;;;7.50;99.90;;;;;;5053258;28;20211;-78
2022/12/20 03:45:18;;;;;;;6.30;1.87;;;8.10;99.90;;;;;;5053637;28;20198;-75
2022/12/20 03:47:44;;;;;;;4.00;2.30;;;8.20;99.90;;;;;;5036582;28;20938;-75
2022/12/20 03:50:11;;;;;;;3.27;2.17;;;8.30;99.90;;;;;;5071044;28;20275;-75
2022/12/20 03:52:36;;;;;;;1.67;1.53;;;8.40;99.90;;;;;;5053399;28;20222;-77
2022/12/20 03:55:03;;;;;;;2.23;1.70;;;8.40;99.90;;;;;;5071390;28;20464;-77
2022/12/20 03:57:29;;;;;;;3.30;2.30;;;8.50;99.90;;;;;;5071462;28;20218;-77
2022/12/20 03:59:54;;;;;;;4.00;2.00;;;8.60;99.90;;;;;;5053305;28;20453;-76
2022/12/20 04:02:21;;;;;;;3.40;2.17;;;8.60;99.90;;;;;;5071427;28;20635;-76
2022/12/20 04:04:47;;;;;;;2.23;1.83;;;8.70;99.90;;;;;;5071169;28;20184;-77
2022/12/20 04:07:13;;;;;;;2.07;1.53;;;8.50;99.90;;;;;;5053159;28;20476;-76
2022/12/20 04:09:38;;;;;;;3.60;2.67;;;8.60;99.90;;;;;;5070965;28;20425;-77
2022/12/20 04:12:04;;;;;;;2.50;1.83;;;8.90;99.90;;;;;;5070838;28;20680;-78
2022/12/20 04:14:30;;;;;;;1.50;1.40;;;8.90;99.90;;;;;;5052523;28;20213;-77
2022/12/20 04:16:56;;;;;;;6.50;4.30;;;9.00;99.90;;;;;;5070634;28;20417;-77
2022/12/20 04:19:21;;;;;;;12.67;8.90;;;8.50;99.90;;;;;;5070565;28;20191;-77
2022/12/20 04:21:47;;;;;;;18.17;12.93;;;8.10;99.90;;;;;;5070177;28;20183;-76
2022/12/20 04:24:13;;;;;;;19.97;13.10;;;7.30;99.90;;;;;;5070560;28;20433;-77
2022/12/20 04:26:38;;;;;;;22.60;13.10;;;6.80;99.90;;;;;;5036047;28;20210;-76
2022/12/20 04:29:04;;;;;;;9.67;7.10;;;6.30;99.90;;;;;;5052508;28;20198;-76
2022/12/20 04:31:30;;;;;;;19.00;11.87;;;6.20;99.90;;;;;;5070328;28;20722;-77
2022/12/20 04:33:56;;;;;;;24.30;14.53;;;5.90;99.90;;;;;;5070306;28;20218;-77
2022/12/20 04:36:21;;;;;;;20.10;12.80;;;5.50;99.90;;;;;;5070563;28;20421;-77
2022/12/20 04:38:47;;;;;;;4.97;3.70;;;5.30;99.90;;;;;;5070168;28;20240;-76
2022/12/20 04:41:20;;;;;;;2.73;1.77;;;5.70;99.90;;;;;;5052780;28;20184;-75
2022/12/20 04:43:48;;;;;;;1.90;1.43;;;7.30;99.90;;;;;;5052494;28;20236;-78
2022/12/20 04:46:14;;;;;;;2.90;2.20;;;7.90;99.90;;;;;;5070654;28;20556;-77
2022/12/20 04:48:39;;;;;;;5.17;1.80;;;8.20;99.90;;;;;;5070313;28;20505;-77
2022/12/20 04:51:05;;;;;;;2.30;2.00;;;8.50;99.90;;;;;;5051723;28;20191;-76
2022/12/20 04:53:49;;;;;;;5.37;1.93;;;8.60;99.90;;;;;;5070561;28;20288;-77
2022/12/20 04:56:27;;;;;;;1.97;1.87;;;8.70;99.90;;;;;;5070838;28;20207;-77
2022/12/20 04:58:54;;;;;;;2.23;2.00;;;8.80;99.90;;;;;;5072394;28;20424;-76
2022/12/20 05:01:20;;;;;;;2.40;2.20;;;8.80;99.90;;;;;;5073253;28;20411;-77
2022/12/20 05:03:48;;;;;;;2.63;2.40;;;8.80;99.90;;;;;;5082048;28;20442;-76
2022/12/20 05:06:14;;;;;;;4.03;2.50;;;8.70;99.90;;;;;;5088467;28;20419;-77
2022/12/20 05:08:39;;;;;;;6.67;5.00;;;8.60;99.90;;;;;;5089360;28;20991;-77
2022/12/20 05:11:05;;;;;;;6.60;3.70;;;8.40;99.90;;;;;;5070624;28;20433;-77
2022/12/20 05:13:31;;;;;;;2.63;2.10;;;8.20;99.90;;;;;;5078906;28;20198;-77
2022/12/20 05:15:57;;;;;;;5.13;4.20;;;8.30;99.90;;;;;;5052743;28;20257;-76
2022/12/20 05:18:24;;;;;;;15.00;10.73;;;8.20;99.90;;;;;;5070745;28;20418;-76
2022/12/20 05:26:16;;;;;;;7.23;5.50;;;7.50;99.90;;;;;;5070242;28;20899;-76
2022/12/20 05:26:23;;;;;;;18.00;12.40;;;7.00;99.90;;;;;;5069439;28;20456;-77
2022/12/20 05:28:49;;;;;;;20.17;13.00;;;6.50;99.90;;;;;;5069596;28;20504;-77
2022/12/20 05:31:15;;;;;;;19.43;13.37;;;5.80;99.90;;;;;;5035173;28;20985;-78
2022/12/20 05:33:40;;;;;;;21.03;12.80;;;5.30;99.90;;;;;;5034805;28;20448;-77
2022/12/20 05:36:06;;;;;;;18.47;12.50;;;5.00;99.90;;;;;;5050950;28;20255;-76
2022/12/20 05:38:32;;;;;;;6.73;3.70;;;4.80;99.90;;;;;;5069321;28;20286;-76
2022/12/20 05:40:57;;;;;;;3.27;2.37;;;5.80;99.90;;;;;;5068975;28;20946;-77
2022/12/20 05:43:23;;;;;;;2.73;1.80;;;6.70;99.90;;;;;;5069275;28;20198;-77
2022/12/20 05:45:51;;;;;;;4.37;3.10;;;7.50;99.90;;;;;;5069047;28;20183;-76
2022/12/20 05:48:19;;;;;;;3.43;3.13;;;7.80;99.90;;;;;;5069044;28;20290;-77
2022/12/20 05:50:45;;;;;;;2.53;2.33;;;8.10;99.90;;;;;;5050924;28;20512;-77
2022/12/20 05:53:15;;;;;;;3.27;2.57;;;8.20;99.90;;;;;;5069514;28;20444;-76
2022/12/20 05:55:49;;;;;;;7.07;2.40;;;8.30;99.90;;;;;;5068955;28;20457;-77
2022/12/20 05:58:15;;;;;;;3.37;2.60;;;8.40;99.90;;;;;;5069085;28;20414;-76
2022/12/20 06:00:42;;;;;;;2.90;2.17;;;8.50;99.90;;;;;;5068631;28;20495;-77
2022/12/20 06:03:09;;;;;;;3.23;2.53;;;8.60;99.90;;;;;;5053640;28;20782;-77
2022/12/20 06:05:36;;;;;;;3.13;2.33;;;8.60;99.90;;;;;;5073031;28;20424;-77
2022/12/20 06:08:04;;;;;;;3.63;2.37;;;8.60;99.90;;;;;;5072709;28;20503;-76
2022/12/20 06:10:30;;;;;;;3.60;2.70;;;8.70;99.90;;;;;;5073124;28;20426;-77
2022/12/20 06:12:55;;;;;;;4.10;2.70;;;8.60;99.90;;;;;;5072838;28;20966;-77
2022/12/20 06:15:21;;;;;;;9.13;3.27;;;8.60;99.90;;;;;;5072766;28;20465;-76
2022/12/20 06:17:46;;;;;;;4.30;3.40;;;8.50;99.90;;;;;;5072856;28;20188;-78
2022/12/20 06:20:12;;;;;;;5.07;3.10;;;8.50;99.90;;;;;;5055647;28;20175;-78
2022/12/20 06:22:38;;;;;;;3.50;3.20;;;8.50;99.90;;;;;;5055723;28;20191;-77
2022/12/20 06:25:04;;;;;;;4.00;2.70;;;8.60;99.90;;;;;;5038643;28;20187;-76
2022/12/20 06:27:30;;;;;;;4.40;3.50;;;8.70;99.90;;;;;;5055141;28;20577;-77
2022/12/20 06:29:55;;;;;;;6.67;3.57;;;8.60;99.90;;;;;;5074078;28;20421;-77
2022/12/20 06:32:21;;;;;;;4.27;3.00;;;8.60;99.90;;;;;;5055223;28;20206;-78
2022/12/20 06:34:46;;;;;;;5.93;3.17;;;8.70;99.90;;;;;;5073420;28;20207;-77
2022/12/20 06:37:12;;;;;;;5.57;3.33;;;8.70;99.90;;;;;;5038804;28;20183;-77
2022/12/20 06:39:38;;;;;;;4.50;3.33;;;8.60;99.90;;;;;;5021957;28;20649;-77
2022/12/20 06:42:04;;;;;;;3.57;2.90;;;8.60;99.90;;;;;;5072849;28;20175;-77
2022/12/20 06:44:29;;;;;;;3.13;2.83;;;8.60;99.90;;;;;;5038279;28;20613;-78
2022/12/20 06:46:55;;;;;;;5.70;2.90;;;8.60;99.90;;;;;;5072294;28;20456;-77
2022/12/20 06:49:21;;;;;;;4.47;3.30;;;8.70;99.90;;;;;;5071615;28;20184;-76
2022/12/20 06:51:47;;;;;;;4.27;3.20;;;8.70;99.90;;;;;;5053807;28;20175;-76
2022/12/20 06:54:12;;;;;;;4.73;2.80;;;8.80;99.90;;;;;;5053329;28;20840;-78
2022/12/20 06:56:38;;;;;;;4.37;2.83;;;8.80;99.90;;;;;;5053451;28;20413;-78
2022/12/20 06:59:04;;;;;;;3.83;2.97;;;8.80;99.90;;;;;;5071643;28;20249;-77
2022/12/20 07:01:30;;;;;;;5.97;2.87;;;8.80;99.90;;;;;;5071443;28;20217;-78
2022/12/20 07:03:56;;;;;;;5.33;3.07;;;8.70;99.90;;;;;;5020241;28;20437;-77
2022/12/20 07:06:22;;;;;;;5.63;3.10;;;8.70;99.90;;;;;;5053441;28;20467;-78
2022/12/20 07:08:47;;;;;;;8.03;3.20;;;8.80;99.90;;;;;;5071504;28;20188;-78
2022/12/20 07:11:13;;;;;;;8.70;3.70;;;8.70;99.90;;;;;;5072021;28;20188;-77
2022/12/20 07:13:38;;;;;;;6.33;2.73;;;8.80;99.90;;;;;;5071331;28;20200;-77
2022/12/20 07:16:04;;;;;;;6.17;3.30;;;8.80;99.90;;;;;;5072153;28;20211;-78
2022/12/20 07:18:31;;;;;;;4.87;2.80;;;8.70;99.90;;;;;;5054119;28;20249;-77
2022/12/20 07:21:01;;;;;;;7.47;3.53;;;8.70;99.90;;;;;;5071820;28;20415;-78
2022/12/20 07:23:27;;;;;;;18.40;11.70;;;8.70;99.90;;;;;;5071908;28;20453;-77
2022/12/20 07:25:54;;;;;;;18.10;11.57;;;8.10;99.90;;;;;;5053852;28;20418;-77
2022/12/20 07:28:20;;;;;;;14.93;11.70;;;7.30;99.90;;;;;;5071819;28;20458;-78
2022/12/20 07:30:46;;;;;;;19.33;13.10;;;6.60;99.90;;;;;;5036395;28;20504;-78
2022/12/20 07:33:11;;;;;;;15.50;11.97;;;6.10;99.90;;;;;;5052186;28;20442;-78
2022/12/20 07:35:37;;;;;;;23.60;13.50;;;5.80;99.90;;;;;;5052762;28;20214;-78
2022/12/20 07:38:02;;;;;;;18.77;12.50;;;5.50;99.90;;;;;;5019757;28;20179;-77
2022/12/20 07:40:28;;;;;;;18.63;12.10;;;5.30;99.90;;;;;;5070610;28;20183;-78
2022/12/20 07:42:54;;;;;;;23.17;11.93;;;5.10;99.90;;;;;;5069395;28;20324;-77
2022/12/20 07:45:19;;;;;;;8.80;6.50;;;5.10;99.90;;;;;;5052046;28;20237;-78
2022/12/20 07:47:45;;;;;;;10.00;3.90;;;5.60;99.90;;;;;;5052505;28;20328;-78
2022/12/20 07:50:10;;;;;;;25.70;14.30;;;6.20;99.90;;;;;;5052134;28;20195;-78
2022/12/20 07:52:37;;;;;;;28.63;18.90;;;6.30;99.90;;;;;;5069764;28;20213;-78
2022/12/20 07:55:05;;;;;;;36.00;18.37;;;6.10;99.90;;;;;;5070258;28;20207;-78
2022/12/20 07:57:47;;;;;;;17.83;12.30;;;5.80;99.90;;;;;;5051804;28;20433;-78
2022/12/20 08:00:14;;;;;;;13.00;7.20;;;5.80;99.90;;;;;;5069694;28;20532;-77
2022/12/20 08:02:58;;;;;;;24.20;16.10;;;6.00;99.90;;;;;;5051201;28;20452;-77
2022/12/20 08:05:24;;;;;;;22.80;13.83;;;5.90;99.90;;;;;;5069830;28;20394;-77
2022/12/20 08:07:51;;;;;;;22.10;12.63;;;5.50;99.90;;;;;;5051963;28;20844;-78
2022/12/20 08:10:18;;;;;;;22.27;13.67;;;5.30;99.90;;;;;;5069618;28;20430;-78
2022/12/20 08:12:46;;;;;;;19.33;12.50;;;5.20;99.90;;;;;;5069480;28;20441;-79
2022/12/20 08:15:12;;;;;;;24.80;14.07;;;5.10;99.90;;;;;;5051212;28;20464;-78
2022/12/20 08:17:37;;;;;;;17.13;11.77;;;5.00;99.90;;;;;;5069747;28;20420;-78
2022/12/20 08:20:04;;;;;;;16.33;11.33;;;4.90;99.90;;;;;;5069174;28;20250;-78
2022/12/20 08:22:30;;;;;;;14.60;10.20;;;4.80;99.90;;;;;;5051110;28;20999;-78
2022/12/20 08:24:56;;;;;;;12.13;9.23;;;4.80;99.90;;;;;;5068884;28;20425;-78
2022/12/20 08:27:21;;;;;;;22.03;10.60;;;4.90;99.90;;;;;;5051350;28;20206;-77
2022/12/20 08:29:47;;;;;;;11.90;9.30;;;4.90;99.90;;;;;;5051231;28;20622;-77
2022/12/20 08:32:13;;;;;;;13.67;9.20;;;4.90;99.90;;;;;;5069633;28;20687;-77
2022/12/20 08:34:39;;;;;;;14.23;9.53;;;5.00;99.90;;;;;;5017930;28;20523;-78
2022/12/20 08:37:04;;;;;;;14.40;9.97;;;5.00;99.90;;;;;;5051726;28;20653;-77
2022/12/20 08:39:30;;;;;;;16.70;10.60;;;5.00;99.90;;;;;;5051472;28;20483;-77
2022/12/20 08:41:56;;;;;;;18.50;11.20;;;5.10;99.90;;;;;;5069696;28;20183;-77
2022/12/20 08:44:21;;;;;;;15.67;10.13;;;5.10;99.90;;;;;;5069521;28;20222;-77
2022/12/20 08:46:47;;;;;;;5.40;3.87;;;5.20;99.90;;;;;;5052151;28;20191;-78
2022/12/20 08:49:12;;;;;;;3.30;2.70;;;5.50;99.90;;;;;;5069715;28;20240;-77
2022/12/20 08:51:38;;;;;;;3.70;3.10;;;6.10;99.90;;;;;;5051519;28;20191;-77
2022/12/20 08:54:04;;;;;;;7.07;2.83;;;6.50;99.90;;;;;;5069429;28;20244;-78
2022/12/20 08:56:29;;;;;;;3.23;2.97;;;6.80;99.90;;;;;;5069745;28;20175;-77
2022/12/20 08:58:55;;;;;;;3.33;2.37;;;7.10;99.90;;;;;;5034542;28;20640;-78
2022/12/20 09:01:21;;;;;;;2.87;2.43;;;7.20;99.90;;;;;;5068982;28;20179;-78
2022/12/20 09:03:48;;;;;;;4.67;3.07;;;7.30;99.90;;;;;;5050694;28;20206;-77
2022/12/20 09:06:19;;;;;;;7.67;2.70;;;7.50;99.90;;;;;;5068977;28;20451;-78
2022/12/20 09:08:45;;;;;;;5.67;2.50;;;7.60;99.90;;;;;;5051110;28;20420;-77
2022/12/20 09:11:12;;;;;;;4.70;2.60;;;7.70;99.90;;;;;;5068698;28;20462;-77
2022/12/20 09:13:40;;;;;;;5.40;2.10;;;8.10;99.90;;;;;;5069402;28;20437;-78
2022/12/20 09:16:07;;;;;;;4.63;2.60;;;8.10;99.90;;;;;;5069683;28;20535;-77
2022/12/20 09:18:33;;;;;;;3.17;2.00;;;8.40;99.90;;;;;;5051880;28;20443;-77
2022/12/20 09:21:03;;;;;;;5.53;2.37;;;8.50;99.90;;;;;;5052006;28;20414;-78
2022/12/20 09:23:32;;;;;;;2.27;2.07;;;8.60;99.90;;;;;;5052759;28;20437;-77
2022/12/20 09:26:12;;;;;;;2.87;2.40;;;8.70;99.90;;;;;;5051607;28;20458;-77
2022/12/20 09:28:39;;;;;;;4.33;2.40;;;8.60;99.90;;;;;;5052119;28;20432;-78
2022/12/20 09:31:07;;;;;;;3.87;2.87;;;8.70;99.90;;;;;;5051729;28;20823;-77
2022/12/20 09:33:33;;;;;;;2.10;2.00;;;8.80;99.90;;;;;;5051689;28;20453;-78
2022/12/20 09:36:00;;;;;;;3.23;1.70;;;9.10;99.90;;;;;;5051871;28;20472;-78
2022/12/20 09:38:27;;;;;;;8.97;2.47;;;9.20;99.90;;;;;;5050821;28;20505;-77
2022/12/20 09:40:58;;;;;;;3.47;2.50;;;9.10;99.90;;;;;;5069918;28;20500;-78
2022/12/20 09:43:24;;;;;;;1.50;1.40;;;9.10;99.90;;;;;;5070538;28;21084;-78
2022/12/20 09:45:53;;;;;;;2.93;2.40;;;9.10;99.90;;;;;;5035124;28;20420;-78
2022/12/20 09:48:22;;;;;;;4.03;2.03;;;9.40;99.90;;;;;;5069563;28;20414;-77
2022/12/20 09:51:03;;;;;;;2.83;2.57;;;9.40;99.90;;;;;;5069233;28;20927;-76
2022/12/20 09:53:37;;;;;;;1.93;1.83;;;9.50;99.90;;;;;;5069637;28;21008;-78
2022/12/20 09:56:11;;;;;;;3.07;2.20;;;9.80;99.90;;;;;;5052268;28;20919;-78
2022/12/20 09:58:58;;;;;;;3.17;2.00;;;10.00;99.90;;;;;;5053830;28;20776;-77
2022/12/20 10:01:25;;;;;;;2.97;1.90;;;10.20;99.90;;;;;;5034582;28;20548;-77
2022/12/20 10:03:52;;;;;;;4.97;1.67;;;10.30;99.90;;;;;;5051501;28;20452;-77
2022/12/20 10:06:43;;;;;;;2.57;2.10;;;10.30;99.90;;;;;;5069690;28;20797;-78
2022/12/20 10:09:34;;;;;;;4.20;2.07;;;10.20;99.90;;;;;;5068448;28;20413;-77
2022/12/20 10:12:39;;;;;;;2.60;1.60;;;10.30;99.90;;;;;;5063884;28;20458;-77
2022/12/20 10:15:21;;;;;;;2.80;2.47;;;10.10;99.90;;;;;;5029665;28;20465;-77
2022/12/20 10:18:15;;;;;;;2.97;2.30;;;10.20;99.90;;;;;;5069097;28;20413;-78
2022/12/20 10:20:56;;;;;;;9.67;2.30;;;10.30;99.90;;;;;;5069087;28;20390;-77
2022/12/20 10:23:27;;;;;;;7.60;2.50;;;10.30;99.90;;;;;;5050895;28;20500;-77
2022/12/20 10:25:55;;;;;;;5.13;2.07;;;10.30;99.90;;;;;;5051109;28;20477;-77
2022/12/20 10:28:29;;;;;;;3.97;2.10;;;10.40;99.90;;;;;;5050753;28;21211;-77
2022/12/20 10:31:00;;;;;;;2.93;2.07;;;10.40;99.90;;;;;;5069669;28;20399;-77
2022/12/20 10:33:27;;;;;;;2.70;2.07;;;10.40;99.90;;;;;;5071449;28;20528;-77
2022/12/20 10:35:52;;;;;;;3.27;2.40;;;10.50;99.90;;;;;;5052714;28;20465;-77
2022/12/20 10:38:19;;;;;;;2.47;1.90;;;10.50;99.90;;;;;;5070871;28;20785;-77
2022/12/20 10:40:54;;;;;;;3.73;2.07;;;10.50;99.90;;;;;;5052962;28;20189;-78
2022/12/20 10:43:22;;;;;;;4.23;2.10;;;10.60;99.90;;;;;;5070208;28;20471;-77
2022/12/20 10:46:05;;;;;;;7.07;2.13;;;10.60;99.90;;;;;;5051835;28;20417;-77
2022/12/20 10:48:37;;;;;;;2.37;1.60;;;10.60;99.90;;;;;;5071019;28;20493;-78
2022/12/20 10:51:08;;;;;;;2.57;1.60;;;10.60;99.90;;;;;;5055150;28;20567;-78
2022/12/20 10:53:35;;;;;;;2.77;1.87;;;10.60;99.90;;;;;;5072686;28;20480;-77
2022/12/20 10:56:16;;;;;;;2.23;1.57;;;10.60;99.90;;;;;;5072414;28;20467;-77
2022/12/20 10:58:50;;;;;;;1.67;1.40;;;10.70;99.90;;;;;;5072323;28;20395;-77
2022/12/20 11:01:18;;;;;;;2.13;1.70;;;10.70;99.90;;;;;;5055704;28;20458;-77
2022/12/20 11:03:54;;;;;;;4.10;2.87;;;10.60;99.90;;;;;;5053729;28;20464;-77
2022/12/20 11:06:23;;;;;;;25.17;14.70;;;10.70;99.90;;;;;;5054007;28;20430;-77
2022/12/20 11:08:49;;;;;;;12.17;8.60;;;10.20;99.90;;;;;;5071930;28;20421;-77
2022/12/20 11:11:21;;;;;;;12.90;7.10;;;10.00;99.90;;;;;;5072969;28;20527;-78
2022/12/20 11:13:49;;;;;;;9.80;7.23;;;9.80;99.90;;;;;;5039338;28;20442;-76
2022/12/20 11:16:23;;;;;;;5.47;3.90;;;9.70;99.90;;;;;;5071780;28;20550;-76
2022/12/20 11:19:07;;;;;;;3.73;3.27;;;9.60;99.90;;;;;;5071178;28;20418;-77
2022/12/20 11:21:39;;;;;;;21.03;14.80;;;9.70;99.90;;;;;;5071896;28;20405;-77
2022/12/20 11:24:10;;;;;;;26.53;15.77;;;9.40;99.90;;;;;;5072597;28;20434;-76
2022/12/20 11:26:41;;;;;;;25.93;14.13;;;8.90;99.90;;;;;;5054329;28;20441;-78
2022/12/20 11:29:19;;;;;;;22.70;14.80;;;8.40;99.90;;;;;;5072188;28;20402;-77
2022/12/20 11:31:47;;;;;;;23.53;14.60;;;8.00;99.90;;;;;;5053350;28;20409;-76
2022/12/20 11:34:49;;;;;;;25.37;18.73;;;7.80;99.90;;;;;;5070836;28;20487;-77
2022/12/20 11:37:30;;;;;;;20.83;14.00;;;7.60;99.90;;;;;;5070663;28;20532;-77
2022/12/20 11:40:05;;;;;;;21.80;14.43;;;7.40;99.90;;;;;;5070659;28;20417;-77
2022/12/20 11:42:57;;;;;;;18.40;12.17;;;7.50;99.90;;;;;;5070716;28;20441;-77
2022/12/20 11:45:53;;;;;;;19.73;12.53;;;7.50;99.90;;;;;;5070610;28;20524;-77
2022/12/20 11:48:40;;;;;;;15.40;11.50;;;7.60;99.90;;;;;;5070436;28;20482;-77
2022/12/20 11:51:20;;;;;;;12.20;9.27;;;7.60;99.90;;;;;;5070696;28;20400;-77
2022/12/20 11:54:23;;;;;;;13.53;8.63;;;7.90;99.90;;;;;;5070500;28;20448;-77
2022/12/20 11:56:55;;;;;;;16.63;9.63;;;7.90;99.90;;;;;;5070480;28;20427;-77
2022/12/20 11:59:23;;;;;;;16.80;9.80;;;8.00;99.90;;;;;;5070806;28;20778;-79
2022/12/20 12:02:03;;;;;;;16.60;11.43;;;8.00;99.90;;;;;;5053065;28;20429;-77
2022/12/20 12:04:41;;;;;;;45.90;26.20;;;8.30;99.90;;;;;;5071991;28;20489;-77
2022/12/20 12:07:18;;;;;;;41.13;22.23;;;8.00;99.90;;;;;;5071542;28;20878;-77
2022/12/20 12:10:14;;;;;;;33.03;18.37;;;8.00;99.90;;;;;;5053784;28;20460;-78
2022/12/20 12:12:43;;;;;;;29.47;16.53;;;7.90;99.90;;;;;;5070765;28;20436;-78
2022/12/20 12:15:21;;;;;;;3.70;2.60;;;7.90;99.90;;;;;;5071231;28;20464;-79
2022/12/20 12:17:53;;;;;;;2.60;1.80;;;8.50;99.90;;;;;;5070953;28;20891;-77
2022/12/20 12:20:40;;;;;;;26.20;14.80;;;9.10;99.90;;;;;;5052516;28;20482;-77
2022/12/20 12:23:17;;;;;;;34.63;16.33;;;9.10;99.90;;;;;;5052846;28;20479;-78
2022/12/20 12:25:43;;;;;;;38.03;19.43;;;8.60;99.90;;;;;;5070752;28;20409;-76
2022/12/20 12:28:13;;;;;;;32.67;17.97;;;8.20;99.90;;;;;;5019446;28;20863;-78
2022/12/20 12:30:45;;;;;;;23.90;13.33;;;8.00;99.90;;;;;;5071048;28;20195;-79
2022/12/20 12:33:21;;;;;;;23.10;14.00;;;7.80;99.90;;;;;;5072508;28;20444;-78
2022/12/20 12:35:52;;;;;;;19.53;13.20;;;7.70;99.90;;;;;;5072416;28;20450;-76
2022/12/20 12:38:47;;;;;;;18.87;12.47;;;7.60;99.90;;;;;;5070351;28;20440;-78
2022/12/20 12:41:46;;;;;;;19.70;12.30;;;7.60;99.90;;;;;;5071644;28;20405;-77
2022/12/20 12:44:17;;;;;;;19.77;12.40;;;7.60;99.90;;;;;;5071043;28;20432;-77
2022/12/20 12:46:44;;;;;;;19.50;11.70;;;7.70;99.90;;;;;;5072414;28;20821;-79
2022/12/20 12:49:23;;;;;;;15.57;10.30;;;7.70;99.90;;;;;;5053310;28;20605;-78
2022/12/20 12:51:52;;;;;;;14.47;8.40;;;7.80;99.90;;;;;;5071450;28;20417;-77
2022/12/20 12:54:23;;;;;;;13.57;8.70;;;7.80;99.90;;;;;;5071176;28;20464;-77
2022/12/20 12:56:58;;;;;;;11.40;8.97;;;7.70;99.90;;;;;;5070875;28;20420;-77
2022/12/20 12:59:33;;;;;;;14.90;10.13;;;7.70;99.90;;;;;;5036833;28;20427;-78
2022/12/20 13:02:04;;;;;;;14.80;10.63;;;7.70;99.90;;;;;;5071087;28;20800;-77
2022/12/20 13:04:54;;;;;;;17.83;11.20;;;7.70;99.90;;;;;;5051649;28;20433;-77
2022/12/20 13:07:32;;;;;;;20.77;13.13;;;7.60;99.90;;;;;;5055995;28;20572;-77